createdAt,value
2022-11-07T00:02:05.176Z,0.60
2022-11-07T00:04:34.204Z,0.77
2022-11-07T00:07:03.135Z,0.70
2022-11-07T00:09:35.187Z,0.80
2022-11-07T00:12:04.065Z,0.75
2022-11-07T00:14:32.556Z,0.80
2022-11-07T00:17:01.396Z,0.70
2022-11-07T00:19:30.218Z,0.70
2022-11-07T00:21:59.035Z,0.65
2022-11-07T00:24:27.879Z,0.82
2022-11-07T00:26:56.416Z,0.70
2022-11-07T00:29:25.430Z,0.70
2022-11-07T00:31:54.244Z,0.60
2022-11-07T00:34:22.700Z,0.68
2022-11-07T00:36:50.802Z,0.60
2022-11-07T00:39:19.746Z,0.60
2022-11-07T00:41:51.088Z,0.60
2022-11-07T00:44:19.932Z,0.75
2022-11-07T00:46:48.707Z,0.70
2022-11-07T00:49:16.781Z,0.80
2022-11-07T00:51:45.654Z,0.70
2022-11-07T00:54:14.092Z,0.80
2022-11-07T00:56:43.115Z,0.60
2022-11-07T00:59:11.996Z,0.60
2022-11-07T01:01:40.992Z,0.60
2022-11-07T01:04:31.459Z,0.60
2022-11-07T01:07:00.939Z,0.60
2022-11-07T01:09:29.743Z,0.85
2022-11-07T01:11:58.607Z,0.52
2022-11-07T01:14:27.716Z,0.60
2022-11-07T01:16:56.542Z,0.70
2022-11-07T01:19:25.373Z,0.60
2022-11-07T01:21:53.913Z,0.70
2022-11-07T01:24:22.704Z,0.60
2022-11-07T01:26:53.188Z,0.65
2022-11-07T01:29:22.321Z,0.60
2022-11-07T01:31:51.046Z,0.70
2022-11-07T01:34:19.990Z,0.70
2022-11-07T01:36:48.960Z,0.70
2022-11-07T01:39:17.731Z,0.60
2022-11-07T01:41:46.531Z,0.70
2022-11-07T01:44:15.235Z,0.77
2022-11-07T01:46:45.851Z,0.85
2022-11-07T01:49:21.224Z,0.70
2022-11-07T01:58:08.458Z,0.80
2022-11-07T02:00:37.541Z,0.70
2022-11-07T02:03:10.951Z,0.60
2022-11-07T02:05:44.430Z,0.68
2022-11-07T02:08:14.018Z,0.60
2022-11-07T02:10:43.950Z,0.65
2022-11-07T02:13:15.714Z,0.75
2022-11-07T02:15:44.717Z,0.80
2022-11-07T02:18:13.611Z,0.77
2022-11-07T02:20:42.414Z,0.70
2022-11-07T02:23:16.104Z,0.70
2022-11-07T02:25:44.821Z,0.60
2022-11-07T02:28:14.252Z,0.60
2022-11-07T02:30:43.122Z,0.60
2022-11-07T02:33:23.360Z,0.75
2022-11-07T02:35:53.373Z,0.70
2022-11-07T02:38:32.762Z,0.60
2022-11-07T02:41:12.461Z,0.80
2022-11-07T02:43:44.743Z,0.70
2022-11-07T02:46:14.839Z,0.80
2022-11-07T02:48:49.123Z,0.70
2022-11-07T02:51:18.358Z,0.80
2022-11-07T02:53:47.913Z,0.85
2022-11-07T02:56:17.118Z,0.73
2022-11-07T02:58:46.119Z,1.02
2022-11-07T03:01:15.410Z,0.60
2022-11-07T03:03:47.576Z,0.70
2022-11-07T03:06:19.186Z,0.73
2022-11-07T03:08:48.434Z,0.68
2022-11-07T03:11:21.071Z,0.60
2022-11-07T03:13:50.956Z,0.67
2022-11-07T03:16:21.050Z,0.70
2022-11-07T03:18:49.588Z,0.70
2022-11-07T03:21:18.460Z,0.65
2022-11-07T03:23:47.207Z,0.65
2022-11-07T03:26:16.129Z,0.75
2022-11-07T03:28:44.619Z,0.65
2022-11-07T03:31:13.458Z,0.70
2022-11-07T03:33:42.191Z,0.70
2022-11-07T03:36:11.525Z,0.75
2022-11-07T03:38:40.252Z,0.60
2022-11-07T03:41:09.043Z,0.60
2022-11-07T03:43:37.913Z,0.70
2022-11-07T03:46:06.736Z,0.63
2022-11-07T03:48:35.488Z,0.80
2022-11-07T03:51:04.272Z,0.60
2022-11-07T03:53:33.139Z,0.90
2022-11-07T03:56:02.621Z,0.60
2022-11-07T03:58:31.408Z,0.70
2022-11-07T04:01:00.241Z,0.70
2022-11-07T04:03:29.104Z,0.80
2022-11-07T04:05:57.863Z,0.77
2022-11-07T04:08:26.728Z,0.70
2022-11-07T04:10:55.693Z,0.70
2022-11-07T04:13:42.810Z,0.70
2022-11-07T04:16:32.747Z,0.70
2022-11-07T04:19:03.704Z,0.70
2022-11-07T04:21:32.650Z,0.70
2022-11-07T04:24:01.444Z,0.70
2022-11-07T04:26:48.517Z,0.80
2022-11-07T04:29:17.321Z,0.80
2022-11-07T04:31:45.399Z,0.85
2022-11-07T04:34:14.146Z,0.80
2022-11-07T04:36:43.530Z,0.90
2022-11-07T04:39:12.346Z,0.77
2022-11-07T04:41:40.776Z,0.90
2022-11-07T04:44:09.967Z,0.90
2022-11-07T04:46:38.422Z,0.85
2022-11-07T04:49:06.891Z,0.82
2022-11-07T04:51:35.441Z,0.80
2022-11-07T04:54:03.881Z,1.05
2022-11-07T04:56:34.598Z,0.90
2022-11-07T04:59:03.567Z,1.00
2022-11-07T05:01:32.636Z,1.00
2022-11-07T05:04:01.578Z,1.08
2022-11-07T05:06:30.939Z,0.90
2022-11-07T05:08:59.706Z,0.70
2022-11-07T05:11:28.551Z,0.98
2022-11-07T05:13:57.378Z,0.90
2022-11-07T05:16:26.131Z,1.10
2022-11-07T05:18:54.920Z,0.85
2022-11-07T05:21:23.382Z,0.80
2022-11-07T05:23:52.196Z,0.90
2022-11-07T05:26:21.274Z,0.95
2022-11-07T05:28:49.738Z,0.90
2022-11-07T05:31:19.512Z,1.00
2022-11-07T05:33:48.391Z,0.80
2022-11-07T05:36:19.876Z,0.80
2022-11-07T05:38:50.738Z,0.90
2022-11-07T05:41:21.284Z,0.80
2022-11-07T05:43:50.013Z,0.70
2022-11-07T05:46:18.509Z,1.00
2022-11-07T05:48:46.927Z,0.90
2022-11-07T05:51:15.696Z,0.85
2022-11-07T05:53:44.558Z,0.80
2022-11-07T05:56:13.576Z,0.90
2022-11-07T05:58:41.646Z,0.93
2022-11-07T06:01:10.438Z,1.10
2022-11-07T06:03:39.222Z,1.10
2022-11-07T06:06:08.409Z,0.80
2022-11-07T06:08:37.198Z,1.00
2022-11-07T06:11:07.136Z,0.90
2022-11-07T06:13:35.596Z,0.90
2022-11-07T06:16:04.509Z,0.80
2022-11-07T06:18:35.562Z,0.80
2022-11-07T06:21:08.046Z,1.02
2022-11-07T06:23:36.495Z,0.90
2022-11-07T06:26:04.934Z,1.02
2022-11-07T06:28:33.702Z,0.85
2022-11-07T06:31:03.191Z,0.80
2022-11-07T06:33:32.141Z,1.00
2022-11-07T06:36:09.066Z,0.90
2022-11-07T06:38:38.577Z,1.05
2022-11-07T06:41:12.546Z,1.20
2022-11-07T06:43:41.607Z,1.10
2022-11-07T06:46:14.766Z,1.10
2022-11-07T06:48:43.494Z,1.08
2022-11-07T06:51:12.840Z,1.13
2022-11-07T06:53:41.328Z,0.80
2022-11-07T06:56:14.741Z,1.00
2022-11-07T06:58:43.553Z,1.00
2022-11-07T07:01:15.090Z,1.10
2022-11-07T07:03:44.913Z,1.00
2022-11-07T07:06:15.901Z,0.90
2022-11-07T07:08:45.472Z,1.17
2022-11-07T07:11:16.184Z,1.17
2022-11-07T07:13:44.909Z,0.90
2022-11-07T07:16:14.440Z,1.02
2022-11-07T07:18:43.232Z,1.08
2022-11-07T07:21:14.528Z,1.27
2022-11-07T07:23:43.878Z,0.88
2022-11-07T07:26:15.940Z,1.00
2022-11-07T07:28:45.777Z,1.20
2022-11-07T07:31:17.258Z,1.05
2022-11-07T07:33:47.772Z,0.77
2022-11-07T07:36:20.707Z,0.90
2022-11-07T07:38:50.844Z,1.00
2022-11-07T07:41:20.524Z,1.00
2022-11-07T07:43:49.321Z,1.25
2022-11-07T07:46:24.924Z,0.93
2022-11-07T07:48:53.718Z,0.90
2022-11-07T07:51:22.924Z,1.00
2022-11-07T07:53:51.818Z,1.27
2022-11-07T07:56:20.596Z,1.20
2022-11-07T07:58:49.331Z,0.93
2022-11-07T08:01:18.115Z,1.00
2022-11-07T08:04:03.003Z,1.23
2022-11-07T08:06:32.076Z,0.98
2022-11-07T08:09:00.886Z,0.95
2022-11-07T08:11:29.320Z,1.13
2022-11-07T08:14:01.310Z,1.13
2022-11-07T08:16:30.708Z,1.27
2022-11-07T08:18:59.481Z,1.10
2022-11-07T08:21:28.248Z,1.40
2022-11-07T08:23:57.801Z,1.10
2022-11-07T08:26:27.480Z,1.25
2022-11-07T08:28:56.163Z,1.20
2022-11-07T08:31:25.123Z,1.15
2022-11-07T08:33:54.019Z,1.05
2022-11-07T08:36:22.772Z,1.10
2022-11-07T08:38:51.315Z,1.20
2022-11-07T08:41:22.372Z,0.93
2022-11-07T08:43:51.511Z,1.25
2022-11-07T08:46:19.950Z,1.10
2022-11-07T08:48:48.426Z,1.17
2022-11-07T08:51:17.234Z,1.40
2022-11-07T08:53:45.697Z,1.27
2022-11-07T08:56:15.340Z,1.15
2022-11-07T08:58:44.130Z,1.25
2022-11-07T09:01:13.054Z,1.50
2022-11-07T09:03:48.883Z,1.38
2022-11-07T09:06:19.590Z,1.40
2022-11-07T09:08:48.507Z,1.42
2022-11-07T09:11:20.236Z,1.50
2022-11-07T09:13:48.714Z,1.40
2022-11-07T09:16:20.464Z,1.50
2022-11-07T09:18:50.984Z,1.30
2022-11-07T09:21:22.739Z,1.50
2022-11-07T09:23:52.724Z,1.25
2022-11-07T09:26:21.463Z,1.70
2022-11-07T09:28:52.398Z,1.48
2022-11-07T09:31:23.078Z,1.57
2022-11-07T09:33:51.211Z,1.35
2022-11-07T09:36:19.974Z,1.70
2022-11-07T09:38:48.737Z,1.73
2022-11-07T09:41:27.395Z,1.77
2022-11-07T09:44:08.335Z,1.50
2022-11-07T09:46:48.143Z,1.60
2022-11-07T09:49:32.964Z,1.67
2022-11-07T09:52:10.419Z,1.63
2022-11-07T09:54:41.319Z,1.67
2022-11-07T09:57:22.399Z,1.75
2022-11-07T09:59:57.609Z,1.75
2022-11-07T10:02:29.611Z,2.13
2022-11-07T10:05:00.341Z,1.98
2022-11-07T10:07:50.350Z,1.55
2022-11-07T10:10:28.139Z,2.20
2022-11-07T10:13:08.395Z,1.98
2022-11-07T10:15:49.322Z,2.33
2022-11-07T10:18:29.537Z,1.83
2022-11-07T10:21:37.107Z,2.17
2022-11-07T10:24:16.006Z,2.17
2022-11-07T10:26:46.496Z,1.98
2022-11-07T10:29:21.098Z,1.75
2022-11-07T10:31:49.966Z,2.30
2022-11-07T10:34:37.840Z,1.98
2022-11-07T10:37:06.707Z,1.92
2022-11-07T10:39:35.786Z,1.83
2022-11-07T10:42:17.438Z,1.70
2022-11-07T10:44:47.048Z,1.98
2022-11-07T10:47:24.272Z,1.90
2022-11-07T10:50:23.765Z,1.83
2022-11-07T10:53:02.750Z,2.28
2022-11-07T10:55:35.851Z,1.98
2022-11-07T10:58:09.116Z,2.38
2022-11-07T11:00:42.213Z,2.45
2022-11-07T11:03:28.896Z,2.78
2022-11-07T11:06:12.271Z,3.20
2022-11-07T11:08:41.264Z,3.05
2022-11-07T11:11:26.158Z,3.00
2022-11-07T11:14:15.835Z,2.67
2022-11-07T11:16:45.112Z,3.47
2022-11-07T11:19:33.997Z,3.33
2022-11-07T11:22:07.243Z,3.67
2022-11-07T11:24:41.816Z,3.70
2022-11-07T11:27:17.670Z,2.72
2022-11-07T11:30:08.662Z,3.00
2022-11-07T11:33:00.019Z,2.45
2022-11-07T11:35:49.871Z,2.38
2022-11-07T11:38:34.932Z,3.28
2022-11-07T11:41:18.132Z,3.53
2022-11-07T11:43:54.957Z,1.75
2022-11-07T11:46:34.514Z,2.00
2022-11-07T11:49:33.894Z,2.00
2022-11-07T11:52:10.529Z,2.17
2022-11-07T11:54:39.627Z,1.90
2022-11-07T11:57:23.005Z,1.65
2022-11-07T12:00:08.291Z,1.88
2022-11-07T12:02:55.015Z,2.00
2022-11-07T12:05:26.437Z,2.20
2022-11-07T12:08:35.300Z,2.00
2022-11-07T12:11:18.370Z,1.77
2022-11-07T12:13:57.614Z,2.22
2022-11-07T12:16:46.662Z,1.58
2022-11-07T12:19:49.385Z,2.45
2022-11-07T12:22:33.650Z,1.70
2022-11-07T12:25:30.603Z,1.13
2022-11-07T12:28:08.136Z,1.88
2022-11-07T12:31:12.280Z,1.80
2022-11-07T12:34:01.446Z,1.67
2022-11-07T12:37:01.906Z,2.13
2022-11-07T12:39:50.926Z,2.00
2022-11-07T12:43:00.292Z,1.80
2022-11-07T12:45:54.416Z,1.88
2022-11-07T12:51:06.958Z,1.55
2022-11-07T12:53:58.167Z,2.40
2022-11-07T12:56:32.661Z,1.70
2022-11-07T12:59:03.191Z,1.58
2022-11-07T13:01:44.479Z,2.20
2022-11-07T13:04:35.812Z,1.25
2022-11-07T13:07:41.613Z,1.92
2022-11-07T13:10:33.542Z,1.20
2022-11-07T13:13:28.298Z,2.25
2022-11-07T13:18:45.572Z,1.38
2022-11-07T13:21:14.583Z,1.40
2022-11-07T13:23:43.538Z,1.70
2022-11-07T13:26:32.918Z,1.38
2022-11-07T13:29:03.103Z,1.35
2022-11-07T13:31:40.561Z,1.60
2022-11-07T13:34:13.199Z,1.95
2022-11-07T13:36:42.098Z,1.30
2022-11-07T13:39:13.807Z,1.13
2022-11-07T13:41:45.974Z,1.48
2022-11-07T13:44:41.103Z,1.90
2022-11-07T13:47:16.238Z,1.92
2022-11-07T13:49:49.389Z,1.80
2022-11-07T13:52:55.762Z,1.42
2022-11-07T13:55:27.723Z,1.08
2022-11-07T13:58:05.137Z,1.00
2022-11-07T14:00:36.090Z,1.70
2022-11-07T14:03:04.642Z,1.50
2022-11-07T14:05:36.365Z,1.13
2022-11-07T14:08:13.063Z,1.25
2022-11-07T14:10:47.800Z,1.48
2022-11-07T14:13:27.401Z,1.58
2022-11-07T14:16:01.049Z,1.27
2022-11-07T14:18:47.875Z,1.30
2022-11-07T14:21:22.561Z,1.10
2022-11-07T14:23:51.473Z,1.60
2022-11-07T14:26:32.187Z,1.35
2022-11-07T14:29:02.334Z,0.93
2022-11-07T14:31:33.357Z,1.38
2022-11-07T14:34:07.689Z,1.15
2022-11-07T14:36:36.537Z,1.38
2022-11-07T14:39:12.884Z,1.60
2022-11-07T14:41:45.255Z,1.73
2022-11-07T14:44:28.475Z,1.17
2022-11-07T14:47:06.065Z,1.38
2022-11-07T14:49:45.538Z,1.35
2022-11-07T14:52:29.131Z,1.00
2022-11-07T14:55:06.094Z,1.23
2022-11-07T14:57:37.288Z,1.50
2022-11-07T15:00:13.348Z,1.23
2022-11-07T15:02:42.363Z,1.40
2022-11-07T15:05:39.946Z,1.70
2022-11-07T15:08:15.121Z,1.10
2022-11-07T15:10:45.483Z,1.23
2022-11-07T15:13:27.677Z,1.15
2022-11-07T15:16:21.306Z,0.98
2022-11-07T15:19:00.779Z,1.15
2022-11-07T15:21:32.550Z,1.63
2022-11-07T15:24:02.770Z,1.42
2022-11-07T15:26:36.557Z,1.30
2022-11-07T15:29:16.814Z,1.75
2022-11-07T15:31:50.190Z,1.55
2022-11-07T15:34:39.026Z,0.88
2022-11-07T15:37:13.740Z,1.10
2022-11-07T15:39:42.603Z,1.58
2022-11-07T15:42:11.447Z,1.30
2022-11-07T15:44:39.925Z,1.02
2022-11-07T15:47:09.400Z,1.25
2022-11-07T15:49:38.052Z,1.25
2022-11-07T15:52:06.779Z,1.35
2022-11-07T15:54:35.564Z,1.30
2022-11-07T15:57:06.982Z,1.30
2022-11-07T15:59:37.861Z,0.85
2022-11-07T16:02:08.084Z,1.45
2022-11-07T16:04:39.804Z,1.42
2022-11-07T16:07:15.849Z,1.30
2022-11-07T16:09:44.334Z,1.30
2022-11-07T16:12:18.570Z,0.88
2022-11-07T16:14:47.060Z,1.50
2022-11-07T16:17:20.304Z,1.10
2022-11-07T16:19:48.749Z,1.42
2022-11-07T16:22:18.278Z,0.80
2022-11-07T16:24:46.768Z,1.60
2022-11-07T16:27:19.237Z,1.23
2022-11-07T16:29:48.324Z,1.48
2022-11-07T16:32:18.674Z,1.30
2022-11-07T16:34:48.292Z,1.63
2022-11-07T16:37:16.771Z,1.48
2022-11-07T16:39:45.820Z,1.55
2022-11-07T16:42:17.607Z,1.50
2022-11-07T16:44:46.443Z,1.67
2022-11-07T16:47:17.159Z,1.50
2022-11-07T16:49:46.298Z,1.15
2022-11-07T16:52:17.367Z,1.10
2022-11-07T16:54:46.384Z,1.63
2022-11-07T16:57:17.581Z,1.67
2022-11-07T16:59:47.410Z,1.20
2022-11-07T17:02:25.483Z,1.33
2022-11-07T17:04:55.645Z,1.88
2022-11-07T17:07:25.393Z,1.20
2022-11-07T17:09:54.229Z,1.25
2022-11-07T17:12:23.760Z,1.25
2022-11-07T17:14:52.748Z,1.45
2022-11-07T17:17:21.306Z,1.40
2022-11-07T17:19:50.258Z,1.25
2022-11-07T17:22:19.347Z,1.38
2022-11-07T17:24:48.769Z,1.25
2022-11-07T17:27:27.560Z,1.30
2022-11-07T17:29:56.486Z,1.25
2022-11-07T17:32:25.261Z,1.08
2022-11-07T17:35:17.743Z,1.30
2022-11-07T17:37:43.348Z,1.15
2022-11-07T17:40:24.411Z,0.95
2022-11-07T17:42:52.877Z,1.13
2022-11-07T17:45:21.646Z,1.15
2022-11-07T17:47:51.380Z,1.15
2022-11-07T17:50:21.923Z,1.10
2022-11-07T17:52:53.656Z,1.13
2022-11-07T17:55:23.048Z,1.33
2022-11-07T17:57:52.007Z,1.55
2022-11-07T18:00:23.427Z,1.13
2022-11-07T18:02:53.610Z,1.30
2022-11-07T18:05:27.509Z,1.35
2022-11-07T18:07:59.087Z,1.10
2022-11-07T18:10:27.639Z,1.40
2022-11-07T18:12:58.519Z,1.50
2022-11-07T18:15:27.719Z,1.30
2022-11-07T18:17:56.521Z,0.80
2022-11-07T18:20:25.005Z,1.17
2022-11-07T18:22:53.734Z,1.30
2022-11-07T18:25:22.611Z,1.40
2022-11-07T18:27:51.341Z,0.90
2022-11-07T18:30:19.786Z,1.42
2022-11-07T18:32:48.655Z,0.88
2022-11-07T18:35:17.452Z,1.00
2022-11-07T18:37:45.937Z,1.40
2022-11-07T18:40:15.254Z,0.80
2022-11-07T18:42:47.692Z,1.35
2022-11-07T18:45:16.597Z,1.15
2022-11-07T18:47:45.030Z,1.25
2022-11-07T18:50:13.899Z,1.00
2022-11-07T18:52:42.928Z,1.02
2022-11-07T18:55:12.199Z,1.35
2022-11-07T18:57:42.021Z,1.23
2022-11-07T19:00:13.642Z,1.17
2022-11-07T19:02:42.408Z,1.10
2022-11-07T19:05:11.275Z,1.00
2022-11-07T19:07:43.585Z,1.10
2022-11-07T19:10:15.809Z,1.50
2022-11-07T19:12:44.937Z,1.00
2022-11-07T19:15:14.101Z,1.13
2022-11-07T19:17:42.965Z,0.85
2022-11-07T19:20:12.312Z,0.85
2022-11-07T19:22:41.107Z,0.90
2022-11-07T19:25:10.311Z,0.80
2022-11-07T19:27:39.047Z,1.35
2022-11-07T19:30:09.690Z,1.00
2022-11-07T19:32:38.563Z,0.90
2022-11-07T19:35:07.683Z,0.90
2022-11-07T19:37:36.112Z,1.08
2022-11-07T19:40:04.811Z,1.23
2022-11-07T19:42:33.523Z,1.20
2022-11-07T19:45:02.717Z,1.17
2022-11-07T19:47:32.810Z,1.02
2022-11-07T19:50:02.640Z,1.02
2022-11-07T19:52:31.404Z,1.02
2022-11-07T19:55:00.265Z,1.05
2022-11-07T19:57:28.773Z,1.20
2022-11-07T19:59:57.570Z,1.02
2022-11-07T20:02:32.934Z,1.05
2022-11-07T20:05:03.878Z,1.05
2022-11-07T20:07:32.747Z,0.82
2022-11-07T20:10:02.715Z,1.10
2022-11-07T20:12:31.497Z,1.02
2022-11-07T20:15:01.407Z,1.13
2022-11-07T20:17:30.117Z,1.10
2022-11-07T20:20:03.757Z,1.13
2022-11-07T20:22:34.125Z,0.93
2022-11-07T20:25:03.142Z,0.98
2022-11-07T20:27:33.476Z,1.00
2022-11-07T20:30:02.161Z,1.10
2022-11-07T20:32:30.995Z,1.25
2022-11-07T20:34:59.463Z,0.80
2022-11-07T20:37:28.256Z,0.90
2022-11-07T20:39:56.999Z,0.80
2022-11-07T20:42:25.445Z,0.82
2022-11-07T20:44:53.938Z,0.80
2022-11-07T20:47:24.133Z,0.82
2022-11-07T20:49:53.320Z,0.82
2022-11-07T20:52:22.165Z,0.80
2022-11-07T20:54:51.220Z,0.68
2022-11-07T20:57:19.659Z,0.90
2022-11-07T20:59:48.531Z,0.82
2022-11-07T21:02:17.043Z,0.90
2022-11-07T21:05:11.170Z,0.90
2022-11-07T21:07:34.611Z,1.20
2022-11-07T21:10:03.437Z,1.25
2022-11-07T21:12:31.919Z,1.10
2022-11-07T21:15:00.733Z,1.20
2022-11-07T21:17:29.692Z,1.50
2022-11-07T21:19:58.439Z,1.00
2022-11-07T21:22:29.489Z,0.90
2022-11-07T21:24:58.923Z,1.08
2022-11-07T21:27:27.755Z,1.40
2022-11-07T21:29:56.244Z,1.20
2022-11-07T21:32:25.000Z,1.10
2022-11-07T21:34:53.803Z,0.70
2022-11-07T21:37:22.592Z,1.35
2022-11-07T21:39:50.712Z,0.93
2022-11-07T21:42:19.794Z,1.17
2022-11-07T21:44:48.768Z,0.98
2022-11-07T21:47:17.600Z,1.05
2022-11-07T21:49:46.380Z,0.90
2022-11-07T21:52:15.081Z,0.98
2022-11-07T21:54:44.197Z,1.10
2022-11-07T21:57:13.057Z,0.75
2022-11-07T21:59:41.765Z,1.00
2022-11-07T22:02:13.888Z,0.90
2022-11-07T22:04:42.699Z,0.90
2022-11-07T22:07:11.406Z,0.80
2022-11-07T22:09:39.558Z,0.95
2022-11-07T22:12:10.479Z,0.90
2022-11-07T22:14:39.214Z,0.88
2022-11-07T22:17:08.032Z,0.85
2022-11-07T22:19:36.753Z,0.95
2022-11-07T22:22:05.181Z,1.00
2022-11-07T22:24:33.988Z,1.00
2022-11-07T22:27:02.456Z,0.80
2022-11-07T22:29:30.956Z,0.70
2022-11-07T22:32:01.645Z,0.80
2022-11-07T22:34:30.438Z,0.85
2022-11-07T22:36:59.179Z,0.88
2022-11-07T22:39:28.005Z,0.95
2022-11-07T22:41:56.742Z,0.95
2022-11-07T22:44:25.453Z,1.10
2022-11-07T22:46:54.443Z,0.90
2022-11-07T22:49:22.921Z,0.90
2022-11-07T22:51:51.035Z,0.88
2022-11-07T22:54:19.892Z,1.00
2022-11-07T22:56:49.334Z,0.90
2022-11-07T22:59:17.462Z,0.90
2022-11-07T23:01:46.287Z,0.90
2022-11-07T23:04:16.841Z,0.90
2022-11-07T23:06:45.739Z,0.98
2022-11-07T23:09:16.376Z,0.80
2022-11-07T23:11:47.539Z,0.98
2022-11-07T23:14:19.020Z,0.90
2022-11-07T23:16:50.251Z,1.20
2022-11-07T23:19:21.605Z,0.82
2022-11-07T23:21:50.639Z,0.80
2022-11-07T23:24:19.654Z,1.05
2022-11-07T23:26:48.647Z,0.85
2022-11-07T23:29:20.139Z,1.08
2022-11-07T23:31:51.255Z,1.00
2022-11-07T23:34:21.175Z,1.20
2022-11-07T23:36:52.644Z,0.95
2022-11-07T23:39:23.199Z,0.88
2022-11-07T23:41:51.974Z,1.20
2022-11-07T23:44:20.718Z,1.10
2022-11-07T23:47:08.072Z,0.90
2022-11-07T23:49:55.314Z,1.05
2022-11-07T23:52:24.198Z,0.98
2022-11-07T23:55:11.627Z,1.25
2022-11-07T23:58:02.255Z,1.00
